createdAt,value
2018-08-20T00:00:44.423Z,11.27
2018-08-20T00:03:12.789Z,10.70
2018-08-20T00:05:43.229Z,11.27
2018-08-20T00:08:11.407Z,10.70
2018-08-20T00:10:39.622Z,9.73
2018-08-20T00:13:07.803Z,10.17
2018-08-20T00:15:36.002Z,10.83
2018-08-20T00:18:04.178Z,10.20
2018-08-20T00:20:32.393Z,9.20
2018-08-20T00:23:00.554Z,8.93
2018-08-20T00:25:28.930Z,9.27
2018-08-20T00:27:57.126Z,8.80
2018-08-20T00:30:25.314Z,9.23
2018-08-20T00:32:54.678Z,9.60
2018-08-20T00:35:22.939Z,9.00
2018-08-20T00:37:52.207Z,8.70
2018-08-20T00:40:21.197Z,8.27
2018-08-20T00:42:49.450Z,8.00
2018-08-20T00:45:17.650Z,8.00
2018-08-20T00:47:45.815Z,7.87
2018-08-20T00:50:14.013Z,8.00
2018-08-20T00:52:42.186Z,8.03
2018-08-20T00:55:11.902Z,8.20
2018-08-20T00:57:40.682Z,7.87
2018-08-20T01:00:09.906Z,7.70
2018-08-20T01:02:38.082Z,8.27
2018-08-20T01:05:06.288Z,7.90
2018-08-20T01:07:34.450Z,7.40
2018-08-20T01:10:02.678Z,8.30
2018-08-20T01:12:30.854Z,7.93
2018-08-20T01:14:59.033Z,8.27
2018-08-20T01:17:27.210Z,9.20
2018-08-20T01:19:55.383Z,7.83
2018-08-20T01:22:23.579Z,8.30
2018-08-20T01:24:51.760Z,7.87
2018-08-20T01:27:25.402Z,8.33
2018-08-20T01:29:53.750Z,7.00
2018-08-20T01:32:22.152Z,8.17
2018-08-20T01:34:50.364Z,8.00
2018-08-20T01:37:19.630Z,8.60
2018-08-20T01:39:48.612Z,8.57
2018-08-20T01:42:17.518Z,8.43
2018-08-20T01:44:46.602Z,8.90
2018-08-20T01:47:14.803Z,9.30
2018-08-20T01:49:42.997Z,8.47
2018-08-20T01:52:11.278Z,8.57
2018-08-20T01:54:39.458Z,8.33
2018-08-20T01:57:08.114Z,9.73
2018-08-20T01:59:37.102Z,8.33
2018-08-20T02:02:05.319Z,8.67
2018-08-20T02:04:33.498Z,8.80
2018-08-20T02:07:01.786Z,9.93
2018-08-20T02:09:30.014Z,8.60
2018-08-20T02:11:58.231Z,9.07
2018-08-20T02:14:26.409Z,9.40
2018-08-20T02:16:54.601Z,9.00
2018-08-20T02:19:22.879Z,8.53
2018-08-20T02:21:51.046Z,8.43
2018-08-20T02:24:19.224Z,8.50
2018-08-20T02:26:47.477Z,7.63
2018-08-20T02:29:15.670Z,9.27
2018-08-20T02:31:43.849Z,8.17
2018-08-20T02:34:12.162Z,8.63
2018-08-20T02:36:40.342Z,9.30
2018-08-20T02:39:10.917Z,8.93
2018-08-20T02:41:39.255Z,8.40
2018-08-20T02:44:07.770Z,8.67
2018-08-20T02:46:49.177Z,7.50
2018-08-20T02:49:17.854Z,8.90
2018-08-20T02:51:47.066Z,10.17
2018-08-20T02:54:15.269Z,8.80
2018-08-20T02:56:43.650Z,8.93
2018-08-20T02:59:12.502Z,8.80
2018-08-20T03:01:40.698Z,8.43
2018-08-20T03:04:08.878Z,8.57
2018-08-20T03:06:37.772Z,8.90
2018-08-20T03:09:10.226Z,8.13
2018-08-20T03:11:38.623Z,8.67
2018-08-20T03:14:06.941Z,9.80
2018-08-20T03:16:35.802Z,8.73
2018-08-20T03:19:04.022Z,8.20
2018-08-20T03:21:32.221Z,9.10
2018-08-20T03:26:35.034Z,8.33
2018-08-20T03:29:03.219Z,8.53
2018-08-20T03:31:31.414Z,8.60
2018-08-20T03:33:59.594Z,9.10
2018-08-20T03:36:27.909Z,8.17
2018-08-20T03:38:56.106Z,8.93
2018-08-20T03:41:24.290Z,8.40
2018-08-20T03:43:52.487Z,8.53
2018-08-20T03:46:20.884Z,8.77
2018-08-20T03:48:49.089Z,7.77
2018-08-20T03:51:17.249Z,7.97
2018-08-20T03:53:45.390Z,8.33
2018-08-20T03:56:13.614Z,8.33
2018-08-20T03:58:41.763Z,8.90
2018-08-20T04:01:09.903Z,8.90
2018-08-20T04:03:38.278Z,8.40
2018-08-20T04:06:06.465Z,6.97
2018-08-20T04:08:34.525Z,9.00
2018-08-20T04:11:02.641Z,9.60
2018-08-20T04:13:30.770Z,8.33
2018-08-20T04:15:58.914Z,9.73
2018-08-20T04:18:27.157Z,9.90
2018-08-20T04:20:55.370Z,8.20
2018-08-20T04:23:23.540Z,9.00
2018-08-20T04:25:51.673Z,9.50
2018-08-20T04:28:19.936Z,9.10
2018-08-20T04:30:48.050Z,9.00
2018-08-20T04:33:16.182Z,9.57
2018-08-20T04:35:44.314Z,7.67
2018-08-20T04:38:12.459Z,9.90
2018-08-20T04:40:40.582Z,9.87
2018-08-20T04:43:09.182Z,10.37
2018-08-20T04:45:37.463Z,11.80
2018-08-20T04:48:05.854Z,11.47
2018-08-20T04:50:34.200Z,11.10
2018-08-20T04:53:04.995Z,11.87
2018-08-20T04:55:35.019Z,12.20
2018-08-20T04:58:05.137Z,11.90
2018-08-20T05:00:36.291Z,12.33
2018-08-20T05:03:04.478Z,13.13
2018-08-20T05:05:32.653Z,12.87
2018-08-20T05:08:00.842Z,13.90
2018-08-20T05:10:29.170Z,10.40
2018-08-20T05:12:57.356Z,12.80
2018-08-20T05:15:25.541Z,14.50
2018-08-20T05:17:53.738Z,13.57
2018-08-20T05:20:21.914Z,14.20
2018-08-20T05:22:50.100Z,13.03
2018-08-20T05:25:18.270Z,14.77
2018-08-20T05:27:46.458Z,14.60
2018-08-20T05:30:14.627Z,14.67
2018-08-20T05:32:42.810Z,12.60
2018-08-20T05:35:10.987Z,16.23
2018-08-20T05:37:39.174Z,14.07
2018-08-20T05:40:07.342Z,14.90
2018-08-20T05:42:35.572Z,16.73
2018-08-20T05:45:03.805Z,16.20
2018-08-20T05:47:31.998Z,12.87
2018-08-20T05:50:00.157Z,16.27
2018-08-20T05:52:28.338Z,15.10
2018-08-20T05:54:56.429Z,13.30
2018-08-20T05:57:24.558Z,15.07
2018-08-20T05:59:52.696Z,15.03
2018-08-20T06:02:20.826Z,16.70
2018-08-20T06:04:48.958Z,15.33
2018-08-20T06:07:17.158Z,17.07
2018-08-20T06:09:45.291Z,17.33
2018-08-20T06:12:13.502Z,16.50
2018-08-20T06:14:41.684Z,16.70
2018-08-20T06:17:09.775Z,17.00
2018-08-20T06:19:37.911Z,16.27
2018-08-20T06:22:06.066Z,16.40
2018-08-20T06:24:34.205Z,16.20
2018-08-20T06:27:02.330Z,16.93
2018-08-20T06:29:30.473Z,13.37
2018-08-20T06:31:58.602Z,16.73
2018-08-20T06:34:26.762Z,16.47
2018-08-20T06:36:54.884Z,14.07
2018-08-20T06:39:23.014Z,15.70
2018-08-20T06:41:51.146Z,16.27
2018-08-20T06:44:19.278Z,16.63
2018-08-20T06:46:47.398Z,17.33
2018-08-20T06:49:15.526Z,16.63
2018-08-20T06:51:43.665Z,16.30
2018-08-20T06:54:11.797Z,14.93
2018-08-20T06:56:39.930Z,16.97
2018-08-20T06:59:12.843Z,15.53
2018-08-20T07:01:41.029Z,16.90
2018-08-20T07:04:09.338Z,18.10
2018-08-20T07:06:37.498Z,19.30
2018-08-20T07:09:06.615Z,18.67
2018-08-20T07:11:34.746Z,17.67
2018-08-20T07:14:02.894Z,16.10
2018-08-20T07:16:31.019Z,18.83
2018-08-20T07:18:59.151Z,18.60
2018-08-20T07:21:27.274Z,19.20
2018-08-20T07:23:55.437Z,18.90
2018-08-20T07:26:23.534Z,20.20
2018-08-20T07:28:51.670Z,16.40
2018-08-20T07:31:19.799Z,16.23
2018-08-20T07:33:47.956Z,19.20
2018-08-20T07:36:16.075Z,19.67
2018-08-20T07:38:44.216Z,20.27
2018-08-20T07:41:12.330Z,19.43
2018-08-20T07:43:40.481Z,20.17
2018-08-20T07:46:08.607Z,21.60
2018-08-20T07:48:36.722Z,20.40
2018-08-20T07:51:04.878Z,20.23
2018-08-20T07:53:33.011Z,15.73
2018-08-20T07:56:01.146Z,19.80
2018-08-20T07:58:29.266Z,18.13
2018-08-20T08:00:57.450Z,16.90
2018-08-20T08:03:30.598Z,19.20
2018-08-20T08:06:00.027Z,20.30
2018-08-20T08:08:28.226Z,21.50
2018-08-20T08:10:56.398Z,21.63
2018-08-20T08:13:24.522Z,20.77
2018-08-20T08:15:52.661Z,20.90
2018-08-20T08:18:20.794Z,20.57
2018-08-20T08:20:48.923Z,22.97
2018-08-20T08:23:17.062Z,20.03
2018-08-20T08:25:45.238Z,20.73
2018-08-20T08:28:13.390Z,20.70
2018-08-20T08:30:41.870Z,19.40
2018-08-20T08:33:09.997Z,19.90
2018-08-20T08:35:38.171Z,19.80
2018-08-20T08:38:06.402Z,17.17
2018-08-20T08:40:34.495Z,20.37
2018-08-20T08:43:02.674Z,21.03
2018-08-20T08:45:30.803Z,19.90
2018-08-20T08:47:58.939Z,22.33
2018-08-20T08:50:27.118Z,19.03
2018-08-20T08:52:55.240Z,19.87
2018-08-20T08:55:23.383Z,20.53
2018-08-20T08:57:51.526Z,18.73
2018-08-20T09:00:20.657Z,20.60
2018-08-20T09:02:48.786Z,20.03
2018-08-20T09:05:17.152Z,20.90
2018-08-20T09:07:45.302Z,21.00
2018-08-20T09:10:13.682Z,21.90
2018-08-20T09:12:41.812Z,19.63
2018-08-20T09:15:12.586Z,19.50
2018-08-20T09:17:40.723Z,18.83
2018-08-20T09:20:10.986Z,19.23
2018-08-20T09:22:39.254Z,21.23
2018-08-20T09:25:08.366Z,20.30
2018-08-20T09:27:36.634Z,19.77
2018-08-20T09:30:08.163Z,19.00
2018-08-20T09:32:36.416Z,20.47
2018-08-20T09:35:04.944Z,20.00
2018-08-20T09:37:33.196Z,19.67
2018-08-20T09:40:01.321Z,17.77
2018-08-20T09:42:29.446Z,19.50
2018-08-20T09:44:57.626Z,19.77
2018-08-20T09:47:25.849Z,19.93
2018-08-20T09:49:54.036Z,19.27
2018-08-20T09:52:22.221Z,16.97
2018-08-20T09:54:50.425Z,17.77
2018-08-20T09:57:18.610Z,20.07
2018-08-20T09:59:46.802Z,19.37
2018-08-20T10:02:15.003Z,17.33
2018-08-20T10:04:43.197Z,16.50
2018-08-20T10:07:11.383Z,19.50
2018-08-20T10:09:39.656Z,18.10
2018-08-20T10:12:07.766Z,20.30
2018-08-20T10:14:35.937Z,18.70
2018-08-20T10:17:04.150Z,18.20
2018-08-20T10:19:32.350Z,18.10
2018-08-20T10:22:00.542Z,19.43
2018-08-20T10:24:28.735Z,18.17
2018-08-20T10:26:56.946Z,16.30
2018-08-20T10:29:25.155Z,18.27
2018-08-20T10:31:53.342Z,16.33
2018-08-20T10:34:21.507Z,17.87
2018-08-20T10:36:49.735Z,17.00
2018-08-20T10:39:17.922Z,15.33
2018-08-20T10:41:46.138Z,16.30
2018-08-20T10:44:14.350Z,15.27
2018-08-20T10:46:42.538Z,17.20
2018-08-20T10:49:10.748Z,15.33
2018-08-20T10:51:38.882Z,15.63
2018-08-20T10:54:07.010Z,15.70
2018-08-20T10:56:34.926Z,14.90
2018-08-20T10:59:02.825Z,16.60
2018-08-20T11:01:30.986Z,15.00
2018-08-20T11:03:59.470Z,15.20
2018-08-20T11:06:28.774Z,17.83
2018-08-20T11:08:57.350Z,16.00
2018-08-20T11:11:25.494Z,14.70
2018-08-20T11:13:53.658Z,13.73
2018-08-20T11:16:21.802Z,17.33
2018-08-20T11:18:49.955Z,15.93
2018-08-20T11:21:18.185Z,16.10
2018-08-20T11:23:46.356Z,16.70
2018-08-20T11:26:14.504Z,17.07
2018-08-20T11:28:42.666Z,15.40
2018-08-20T11:31:10.804Z,17.50
2018-08-20T11:33:38.983Z,16.63
2018-08-20T11:36:07.185Z,16.93
2018-08-20T11:38:35.656Z,17.87
2018-08-20T11:41:05.003Z,18.73
2018-08-20T11:43:34.241Z,17.63
2018-08-20T11:46:02.443Z,17.90
2018-08-20T11:48:30.582Z,16.30
2018-08-20T11:50:58.717Z,16.23
2018-08-20T11:53:26.954Z,14.63
2018-08-20T11:55:55.068Z,16.07
2018-08-20T11:58:23.206Z,14.73
2018-08-20T12:00:51.326Z,14.00
2018-08-20T12:03:19.542Z,14.33
2018-08-20T12:05:47.730Z,13.77
2018-08-20T12:08:15.915Z,13.70
2018-08-20T12:10:44.082Z,13.00
2018-08-20T12:13:12.282Z,13.97
2018-08-20T12:15:40.473Z,13.93
2018-08-20T12:18:08.658Z,13.17
2018-08-20T12:20:36.858Z,11.87
2018-08-20T12:23:05.108Z,11.70
2018-08-20T12:25:33.226Z,12.93
2018-08-20T12:28:01.406Z,11.33
2018-08-20T12:30:29.602Z,12.20
2018-08-20T12:32:57.833Z,10.47
2018-08-20T12:35:26.562Z,10.70
2018-08-20T12:37:54.758Z,10.30
2018-08-20T12:40:23.053Z,9.37
2018-08-20T12:42:51.220Z,9.20
2018-08-20T12:45:19.398Z,8.57
2018-08-20T12:47:47.642Z,10.23
2018-08-20T12:50:15.778Z,8.77
2018-08-20T12:52:44.006Z,9.20
2018-08-20T12:55:12.133Z,9.80
2018-08-20T12:57:40.266Z,9.80
2018-08-20T13:00:08.398Z,8.20
2018-08-20T13:02:36.535Z,10.07
2018-08-20T13:05:04.894Z,9.60
2018-08-20T13:07:33.110Z,10.50
2018-08-20T13:10:01.230Z,8.47
2018-08-20T13:12:29.426Z,8.97
2018-08-20T13:14:57.542Z,9.80
2018-08-20T13:17:25.701Z,10.50
2018-08-20T13:19:53.851Z,9.87
2018-08-20T13:22:21.989Z,8.70
2018-08-20T13:24:50.134Z,10.23
2018-08-20T13:27:18.282Z,10.20
2018-08-20T13:29:46.402Z,7.63
2018-08-20T13:32:14.526Z,9.67
2018-08-20T13:34:42.646Z,7.73
2018-08-20T13:37:10.788Z,7.17
2018-08-20T13:39:39.018Z,9.30
2018-08-20T13:42:07.134Z,8.07
2018-08-20T13:44:35.286Z,7.97
2018-08-20T13:47:03.414Z,7.10
2018-08-20T13:49:31.563Z,6.33
2018-08-20T13:51:59.762Z,6.67
2018-08-20T13:54:27.984Z,7.50
2018-08-20T13:56:56.202Z,6.50
2018-08-20T13:59:24.390Z,6.13
2018-08-20T14:01:52.597Z,6.33
2018-08-20T14:04:20.803Z,6.23
2018-08-20T14:06:48.989Z,7.40
2018-08-20T14:09:17.166Z,7.60
2018-08-20T14:11:45.361Z,6.53
2018-08-20T14:14:13.551Z,5.90
2018-08-20T14:16:41.744Z,7.30
2018-08-20T14:19:09.956Z,5.77
2018-08-20T14:21:38.113Z,7.23
2018-08-20T14:24:06.330Z,6.33
2018-08-20T14:26:34.490Z,6.43
2018-08-20T14:29:02.807Z,6.73
2018-08-20T14:31:31.011Z,6.80
2018-08-20T14:33:59.214Z,6.30
2018-08-20T14:36:27.514Z,5.10
2018-08-20T14:38:59.256Z,6.93
2018-08-20T14:41:34.002Z,5.07
2018-08-20T14:44:05.892Z,5.27
2018-08-20T14:46:44.165Z,5.17
2018-08-20T14:49:16.205Z,5.03
2018-08-20T14:51:51.028Z,6.30
2018-08-20T14:54:28.703Z,5.07
2018-08-20T14:57:03.963Z,5.00
2018-08-20T14:59:45.491Z,5.33
2018-08-20T15:02:17.974Z,5.00
2018-08-20T15:04:55.360Z,5.50
2018-08-20T15:07:25.207Z,5.17
2018-08-20T15:09:59.910Z,4.50
2018-08-20T15:12:28.607Z,4.53
2018-08-20T15:14:56.994Z,4.50
2018-08-20T15:17:25.151Z,4.50
2018-08-20T15:19:53.299Z,4.87
2018-08-20T15:22:21.472Z,4.00
2018-08-20T15:24:49.634Z,5.20
2018-08-20T15:27:17.766Z,3.93
2018-08-20T15:29:45.913Z,4.10
2018-08-20T15:32:17.410Z,3.70
2018-08-20T15:34:45.704Z,3.63
2018-08-20T15:37:13.846Z,4.23
2018-08-20T15:39:43.244Z,3.50
2018-08-20T15:42:11.417Z,3.30
2018-08-20T15:44:39.582Z,3.50
2018-08-20T15:47:07.886Z,3.43
2018-08-20T15:49:36.049Z,3.67
2018-08-20T15:52:04.266Z,3.67
2018-08-20T15:54:32.444Z,3.03
2018-08-20T15:57:00.695Z,2.60
2018-08-20T15:59:28.900Z,2.40
2018-08-20T16:01:57.090Z,2.70
2018-08-20T16:04:25.278Z,4.30
2018-08-20T16:06:53.468Z,6.67
2018-08-20T16:09:21.650Z,3.03
2018-08-20T16:11:49.878Z,5.07
2018-08-20T16:14:18.062Z,4.70
2018-08-20T16:16:46.246Z,3.97
2018-08-20T16:19:14.549Z,3.30
2018-08-20T16:21:42.959Z,3.17
2018-08-20T16:24:11.326Z,3.13
2018-08-20T16:26:39.659Z,3.07
2018-08-20T16:29:07.977Z,2.70
2018-08-20T16:31:36.246Z,2.63
2018-08-20T16:34:04.598Z,2.90
2018-08-20T16:36:32.802Z,2.50
2018-08-20T16:39:01.039Z,2.70
2018-08-20T16:41:29.234Z,2.70
2018-08-20T16:43:57.554Z,2.00
2018-08-20T16:46:25.778Z,2.10
2018-08-20T16:48:54.234Z,2.00
2018-08-20T16:51:22.378Z,1.73
2018-08-20T16:53:50.510Z,1.50
2018-08-20T16:56:18.692Z,2.10
2018-08-20T16:58:46.806Z,1.97
2018-08-20T17:01:18.089Z,2.10
2018-08-20T17:03:46.293Z,1.70
2018-08-20T17:06:14.448Z,1.80
2018-08-20T17:08:43.627Z,1.93
2018-08-20T17:11:12.255Z,1.80
2018-08-20T17:13:40.591Z,1.90
2018-08-20T17:16:10.838Z,1.83
2018-08-20T17:18:39.202Z,1.97
2018-08-20T17:21:07.426Z,2.00
2018-08-20T17:23:36.118Z,2.00
2018-08-20T17:26:04.269Z,2.00
2018-08-20T17:28:32.398Z,2.30
2018-08-20T17:31:02.058Z,2.53
2018-08-20T17:33:32.447Z,2.60
2018-08-20T17:36:00.758Z,2.33
2018-08-20T17:38:28.925Z,2.37
2018-08-20T17:40:57.062Z,2.40
2018-08-20T17:43:25.199Z,2.40
2018-08-20T17:45:55.576Z,2.50
2018-08-20T17:48:28.961Z,2.60
2018-08-20T17:50:57.854Z,2.60
2018-08-20T17:53:36.007Z,2.27
2018-08-20T17:56:04.243Z,2.30
2018-08-20T17:58:44.205Z,2.23
2018-08-20T18:01:12.676Z,2.17
2018-08-20T18:03:43.101Z,1.80
2018-08-20T18:06:11.274Z,2.10
2018-08-20T18:08:39.446Z,1.90
2018-08-20T18:11:08.294Z,2.03
2018-08-20T18:16:26.237Z,2.00
2018-08-20T18:18:54.438Z,1.70
2018-08-20T18:21:22.625Z,1.80
2018-08-20T18:23:50.797Z,1.60
2018-08-20T18:26:19.008Z,1.70
2018-08-20T18:28:53.061Z,1.70
2018-08-20T18:31:30.466Z,1.67
2018-08-20T18:34:04.120Z,1.70
2018-08-20T18:36:32.579Z,1.67
2018-08-20T18:39:12.177Z,1.70
2018-08-20T18:42:16.194Z,1.50
2018-08-20T18:44:45.338Z,2.00
2018-08-20T18:47:14.886Z,1.60
2018-08-20T18:49:51.305Z,1.63
2018-08-20T18:52:20.146Z,1.77
2018-08-20T18:54:49.642Z,1.50
2018-08-20T18:57:21.237Z,1.40
2018-08-20T18:59:49.584Z,1.70
2018-08-20T19:02:31.862Z,1.30
2018-08-20T19:05:01.193Z,1.50
2018-08-20T19:07:29.340Z,1.73
2018-08-20T19:09:58.066Z,1.90
2018-08-20T19:12:26.198Z,1.03
2018-08-20T19:14:54.354Z,1.30
2018-08-20T19:17:26.590Z,2.13
2018-08-20T19:19:55.153Z,1.40
2018-08-20T19:22:26.585Z,1.17
2018-08-20T19:24:54.754Z,1.37
2018-08-20T19:27:26.523Z,1.20
2018-08-20T19:29:54.781Z,1.30
2018-08-20T19:32:22.913Z,1.53
2018-08-20T19:34:51.054Z,1.40
2018-08-20T19:37:19.194Z,1.10
2018-08-20T19:39:47.346Z,1.20
2018-08-20T19:42:23.862Z,1.13
2018-08-20T19:44:52.034Z,1.30
2018-08-20T19:47:20.160Z,1.50
2018-08-20T19:49:48.345Z,1.20
2018-08-20T19:52:16.544Z,1.20
2018-08-20T19:54:45.820Z,1.40
2018-08-20T19:57:14.042Z,1.07
2018-08-20T19:59:42.242Z,1.07
2018-08-20T20:02:11.809Z,1.60
2018-08-20T20:04:39.982Z,1.10
2018-08-20T20:07:08.183Z,1.20
2018-08-20T20:09:37.291Z,1.20
2018-08-20T20:12:05.626Z,1.20
2018-08-20T20:14:44.187Z,1.20
2018-08-20T20:17:12.386Z,1.37
2018-08-20T20:19:40.645Z,1.50
2018-08-20T20:22:13.836Z,1.30
2018-08-20T20:24:42.182Z,1.20
2018-08-20T20:27:10.396Z,1.10
2018-08-20T20:29:38.590Z,1.30
2018-08-20T20:32:06.770Z,1.30
2018-08-20T20:34:34.982Z,1.37
2018-08-20T20:37:03.256Z,1.50
2018-08-20T20:39:31.418Z,1.43
2018-08-20T20:41:59.668Z,1.30
2018-08-20T20:44:28.798Z,1.20
2018-08-20T20:46:57.021Z,1.37
2018-08-20T20:49:25.217Z,1.57
2018-08-20T20:51:53.431Z,1.50
2018-08-20T20:54:21.611Z,1.63
2018-08-20T20:56:49.838Z,1.60
2018-08-20T20:59:18.010Z,2.00
2018-08-20T21:01:46.364Z,1.77
2018-08-20T21:04:15.383Z,1.40
2018-08-20T21:06:43.610Z,1.50
2018-08-20T21:09:12.973Z,1.20
2018-08-20T21:11:41.281Z,1.47
2018-08-20T21:14:09.559Z,1.63
2018-08-20T21:16:39.003Z,1.50
2018-08-20T21:19:07.209Z,1.33
2018-08-20T21:21:35.447Z,1.50
2018-08-20T21:24:06.214Z,1.43
2018-08-20T21:26:34.396Z,1.77
2018-08-20T21:29:02.623Z,1.60
2018-08-20T21:31:36.914Z,1.43
2018-08-20T21:34:05.142Z,1.80
2018-08-20T21:36:33.314Z,1.90
2018-08-20T21:39:01.519Z,1.60
2018-08-20T21:41:30.018Z,1.40
2018-08-20T21:43:59.140Z,1.50
2018-08-20T21:46:27.332Z,1.50
2018-08-20T21:48:55.504Z,1.53
2018-08-20T21:51:25.278Z,1.77
2018-08-20T21:53:53.409Z,1.93
2018-08-20T21:56:21.544Z,1.70
2018-08-20T21:58:49.673Z,1.73
2018-08-20T22:01:18.271Z,2.10
2018-08-20T22:03:46.697Z,1.70
2018-08-20T22:06:15.165Z,2.00
2018-08-20T22:08:43.338Z,1.60
2018-08-20T22:11:11.921Z,1.90
2018-08-20T22:13:40.073Z,2.10
2018-08-20T22:16:15.314Z,2.10
2018-08-20T22:18:44.761Z,2.10
2018-08-20T22:21:13.754Z,1.80
2018-08-20T22:23:42.646Z,1.80
2018-08-20T22:26:13.651Z,1.87
2018-08-20T22:28:42.170Z,2.20
2018-08-20T22:31:10.302Z,1.73
2018-08-20T22:33:38.734Z,1.57
2018-08-20T22:36:07.322Z,1.90
2018-08-20T22:38:41.590Z,1.73
2018-08-20T22:41:09.743Z,1.80
2018-08-20T22:43:37.884Z,1.80
2018-08-20T22:46:06.021Z,1.40
2018-08-20T22:48:34.146Z,1.70
2018-08-20T22:51:15.002Z,1.60
2018-08-20T22:53:48.186Z,1.57
2018-08-20T22:56:21.044Z,1.70
2018-08-20T22:58:49.178Z,1.80
2018-08-20T23:01:17.326Z,1.70
2018-08-20T23:03:45.467Z,1.57
2018-08-20T23:06:13.606Z,1.90
2018-08-20T23:08:41.730Z,1.80
2018-08-20T23:11:09.902Z,1.70
2018-08-20T23:13:38.042Z,1.67
2018-08-20T23:16:06.166Z,1.50
2018-08-20T23:18:34.294Z,1.97
2018-08-20T23:21:02.430Z,1.67
2018-08-20T23:23:37.282Z,1.80
2018-08-20T23:26:06.674Z,1.60
2018-08-20T23:28:36.521Z,1.60
2018-08-20T23:31:04.658Z,1.80
2018-08-20T23:33:33.574Z,2.00
2018-08-20T23:36:01.720Z,1.60
2018-08-20T23:38:29.934Z,1.60
2018-08-20T23:40:59.233Z,1.60
2018-08-20T23:43:27.626Z,1.70
2018-08-20T23:45:55.778Z,1.57
2018-08-20T23:48:24.082Z,1.73
2018-08-20T23:50:59.096Z,1.53
2018-08-20T23:53:28.211Z,1.80
2018-08-20T23:55:56.333Z,1.73
2018-08-20T23:58:24.466Z,1.70
